Time;durP1;ratioP1;P1;durP2;ratioP2;P2;SDS_P1;SDS_P2;PMS_P1;PMS_P2;Temp;Humidity;BMP_temperature;BMP_pressure;BME280_temperature;BME280_humidity;BME280_pressure;Samples;Min_cycle;Max_cycle;Signal;HPM_P1;HPM_P2
2021/12/12 00:00:20;;;;;;;3.50;1.20;;;;;;;8.50;100.00;100118.91;4998819;28;20053;-90
2021/12/12 00:02:57;;;;;;;2.97;1.15;;;;;;;8.51;100.00;100118.81;4993386;28;20408;-88
2021/12/12 00:05:36;;;;;;;3.15;1.25;;;;;;;8.40;100.00;100083.63;4997296;28;20042;-88
2021/12/12 00:08:08;;;;;;;6.90;1.50;;;;;;;8.57;100.00;100128.22;4997570;28;20045;-88
2021/12/12 00:10:38;;;;;;;5.28;1.25;;;;;;;8.44;100.00;100112.16;4997063;28;20058;-88
2021/12/12 00:13:14;;;;;;;4.18;1.25;;;;;;;8.47;100.00;100119.03;4994757;28;20476;-90
2021/12/12 00:15:41;;;;;;;6.32;1.50;;;;;;;8.43;100.00;100100.03;4996941;28;20049;-88
2021/12/12 00:18:09;;;;;;;8.57;1.73;;;;;;;8.43;100.00;100118.28;4978129;28;20078;-88
2021/12/12 00:20:36;;;;;;;10.70;2.00;;;;;;;8.48;100.00;100118.09;4977799;28;20528;-88
2021/12/12 00:23:05;;;;;;;5.82;1.40;;;;;;;8.60;100.00;100122.00;4981891;28;20522;-88
2021/12/12 00:25:39;;;;;;;5.70;1.63;;;;;;;8.54;100.00;100121.31;4996499;28;20056;-88
2021/12/12 00:28:07;;;;;;;12.32;1.98;;;;;;;8.69;100.00;100130.34;4997506;28;20480;-88
2021/12/12 00:30:34;;;;;;;6.32;1.63;;;;;;;8.58;100.00;100123.81;4996457;28;20512;-88
2021/12/12 00:33:03;;;;;;;8.30;1.50;;;;;;;8.58;100.00;100132.50;4993401;28;20412;-88
2021/12/12 00:35:30;;;;;;;6.10;1.70;;;;;;;8.60;100.00;100137.66;5012978;28;20487;-88
2021/12/12 00:38:03;;;;;;;7.53;1.60;;;;;;;8.58;100.00;100153.38;5015999;28;20056;-88
2021/12/12 00:40:34;;;;;;;7.13;2.88;;;;;;;8.47;100.00;100145.13;5016510;28;20075;-88
2021/12/12 00:43:11;;;;;;;5.55;1.63;;;;;;;8.51;100.00;100155.34;4995364;28;20046;-88
2021/12/12 00:45:38;;;;;;;5.10;1.27;;;;;;;8.48;100.00;100138.97;4995996;28;20046;-88
2021/12/12 00:48:06;;;;;;;5.05;1.60;;;;;;;8.54;100.00;100157.84;4995503;28;20448;-87
2021/12/12 00:50:38;;;;;;;8.90;2.53;;;;;;;8.55;100.00;100148.25;4996221;28;20057;-88
2021/12/12 00:53:08;;;;;;;5.10;1.58;;;;;;;8.44;100.00;100159.13;4992478;28;20065;-88
2021/12/12 00:55:37;;;;;;;6.10;1.80;;;;;;;8.25;100.00;100161.56;4995389;28;20058;-88
2021/12/12 00:58:07;;;;;;;6.88;1.80;;;;;;;8.26;100.00;100167.59;4996134;28;20053;-88
2021/12/12 01:00:41;;;;;;;5.68;1.83;;;;;;;8.20;100.00;100167.81;4996586;28;20054;-88
2021/12/12 01:03:09;;;;;;;4.65;1.58;;;;;;;7.72;100.00;100106.97;4995116;28;20488;-89
2021/12/12 01:05:42;;;;;;;4.37;1.60;;;;;;;7.75;100.00;100128.56;4996753;28;20136;-88
2021/12/12 01:08:10;;;;;;;7.45;1.50;;;;;;;7.76;100.00;100138.09;4995565;28;20046;-89
2021/12/12 01:10:44;;;;;;;5.80;1.48;;;;;;;7.66;100.00;100135.88;4996058;28;20057;-89
2021/12/12 01:13:11;;;;;;;6.00;1.60;;;;;;;7.63;100.00;100155.06;4994810;28;20050;-89
2021/12/12 01:15:48;;;;;;;5.78;1.45;;;;;;;7.54;100.00;100160.59;4976254;28;20440;-88
2021/12/12 01:18:19;;;;;;;4.40;1.40;;;;;;;7.43;100.00;100158.34;4976887;28;20062;-88
2021/12/12 01:20:51;;;;;;;4.55;1.70;;;;;;;7.40;100.00;100174.94;4975880;28;20054;-89
2021/12/12 01:23:25;;;;;;;6.35;1.90;;;;;;;7.40;100.00;100171.47;4975499;28;20054;-89
2021/12/12 01:25:53;;;;;;;6.43;1.77;;;;;;;7.47;100.00;100178.22;5003739;28;20050;-89
2021/12/12 01:28:25;;;;;;;7.47;1.70;;;;;;;7.30;100.00;100142.28;4995888;28;20053;-89
2021/12/12 01:30:54;;;;;;;8.20;1.80;;;;;;;7.52;100.00;100194.50;4993460;28;20053;-89
2021/12/12 01:33:32;;;;;;;4.45;1.52;;;;;;;7.51;100.00;100186.75;4975972;28;20142;-89
2021/12/12 01:36:06;;;;;;;7.65;1.80;;;;;;;7.29;100.00;100168.38;4976556;28;20695;-89
2021/12/12 01:38:55;;;;;;;7.25;1.65;;;;;;;6.96;100.00;100138.19;4992869;28;20065;-88
2021/12/12 01:41:37;;;;;;;4.82;1.50;;;;;;;7.34;100.00;100200.34;4974897;28;20138;-88
2021/12/12 01:44:20;;;;;;;3.95;1.50;;;;;;;7.31;100.00;100190.00;4976111;28;20062;-89
2021/12/12 01:47:09;;;;;;;4.80;1.53;;;;;;;7.28;100.00;100188.38;4976046;28;20042;-88
2021/12/12 01:49:43;;;;;;;9.48;2.00;;;;;;;7.28;100.00;100206.59;4976579;28;20287;-88
2021/12/12 01:52:14;;;;;;;5.88;1.73;;;;;;;7.25;100.00;100205.84;5002426;28;20136;-88
2021/12/12 01:54:45;;;;;;;10.20;1.92;;;;;;;7.27;100.00;100202.28;4994676;28;20056;-88
2021/12/12 01:57:27;;;;;;;5.05;1.52;;;;;;;7.29;100.00;100187.44;4994561;28;20038;-88
2021/12/12 01:59:56;;;;;;;10.57;2.10;;;;;;;7.40;100.00;100215.75;4993763;28;20053;-89
2021/12/12 02:02:31;;;;;;;17.77;2.97;;;;;;;7.46;100.00;100220.78;4992937;28;20140;-88
2021/12/12 02:05:10;;;;;;;6.25;1.98;;;;;;;7.48;100.00;100238.97;4995021;28;20058;-89
2021/12/12 02:07:43;;;;;;;10.52;2.05;;;;;;;7.49;100.00;100236.31;4995015;28;20480;-88
2021/12/12 02:10:19;;;;;;;9.25;2.00;;;;;;;7.53;100.00;100232.69;4994994;28;20049;-89
2021/12/12 02:12:47;;;;;;;13.32;4.13;;;;;;;7.37;100.00;100213.25;4991665;28;20064;-88
2021/12/12 02:15:15;;;;;;;11.23;3.00;;;;;;;7.46;100.00;100212.97;5012216;28;20149;-88
2021/12/12 02:17:46;;;;;;;12.23;3.25;;;;;;;7.59;100.00;100229.03;4994949;28;20049;-89
2021/12/12 02:20:31;;;;;;;11.40;2.30;;;;;;;7.67;100.00;100214.00;5013021;28;20052;-89
2021/12/12 02:23:07;;;;;;;11.45;2.42;;;;;;;7.86;100.00;100245.50;4977874;28;20072;-89
2021/12/12 02:36:46;;;;;;;15.35;3.75;;;;;;;7.60;100.00;100234.19;4992600;28;20053;-88
2021/12/12 02:39:17;;;;;;;13.02;2.50;;;;;;;7.80;100.00;100243.94;4974800;28;20053;-88
2021/12/12 02:41:47;;;;;;;10.10;2.00;;;;;;;8.04;100.00;100250.97;4976089;28;20054;-88
2021/12/12 02:44:16;;;;;;;18.42;3.63;;;;;;;7.82;100.00;100256.91;4974933;28;20569;-88
2021/12/12 02:46:45;;;;;;;16.48;3.03;;;;;;;7.93;100.00;100252.22;4975729;28;20049;-89
2021/12/12 02:49:37;;;;;;;9.40;2.08;;;;;;;8.02;100.00;100256.25;4975440;28;20054;-88
2021/12/12 02:52:17;;;;;;;11.55;2.20;;;;;;;8.09;100.00;100272.50;4976827;28;20058;-88
2021/12/12 02:54:45;;;;;;;13.75;2.53;;;;;;;7.94;100.00;100263.47;4978115;28;20046;-89
2021/12/12 02:57:16;;;;;;;10.27;1.92;;;;;;;7.97;100.00;100266.00;4994280;28;20046;-88
2021/12/12 02:59:50;;;;;;;7.18;1.63;;;;;;;7.97;100.00;100266.81;4991914;28;20069;-88
2021/12/12 03:02:30;;;;;;;7.05;1.90;;;;;;;7.84;100.00;100269.91;4979232;28;20054;-89
2021/12/12 03:05:00;;;;;;;18.30;3.10;;;;;;;7.79;100.00;100288.28;4975343;28;20057;-89
2021/12/12 03:07:28;;;;;;;14.57;2.85;;;;;;;7.83;100.00;100266.44;4975409;28;20042;-88
2021/12/12 03:09:57;;;;;;;14.68;2.53;;;;;;;7.79;100.00;100264.81;4974659;28;20069;-88
2021/12/12 03:12:33;;;;;;;11.45;3.75;;;;;;;7.77;100.00;100274.47;4987211;28;20049;-88
2021/12/12 03:15:08;;;;;;;9.80;2.28;;;;;;;7.82;100.00;100280.38;4997589;28;20050;-89
2021/12/12 03:17:38;;;;;;;13.63;2.67;;;;;;;7.78;100.00;100276.19;4998161;28;20042;-89
2021/12/12 03:20:25;;;;;;;7.82;2.17;;;;;;;7.91;100.00;100287.88;4998265;28;20046;-88
2021/12/12 03:23:19;;;;;;;11.32;2.53;;;;;;;7.88;100.00;100274.09;4980112;28;20050;-89
2021/12/12 03:25:52;;;;;;;12.10;2.28;;;;;;;7.71;100.00;100275.53;4993599;28;20507;-89
2021/12/12 03:28:22;;;;;;;13.15;2.72;;;;;;;7.49;100.00;100236.31;4997650;28;20054;-89
2021/12/12 03:30:52;;;;;;;8.18;2.10;;;;;;;7.93;100.00;100295.66;5011727;28;20403;-89
2021/12/12 03:33:20;;;;;;;14.95;2.38;;;;;;;7.79;100.00;100296.09;4996884;28;20060;-89
2021/12/12 03:35:54;;;;;;;12.43;2.22;;;;;;;7.83;100.00;100274.28;4998238;28;20054;-89
2021/12/12 03:38:27;;;;;;;9.70;2.03;;;;;;;7.90;100.00;100301.84;4997866;28;20405;-88
2021/12/12 03:40:57;;;;;;;12.77;2.25;;;;;;;7.90;100.00;100303.59;4996506;28;20064;-88
2021/12/12 03:43:24;;;;;;;11.95;2.08;;;;;;;7.55;100.00;100267.34;4997771;28;20052;-89
2021/12/12 03:45:52;;;;;;;11.25;2.22;;;;;;;7.59;100.00;100283.72;4998103;28;20080;-88
2021/12/12 03:48:24;;;;;;;8.57;2.00;;;;;;;7.69;100.00;100298.19;4997617;28;20037;-88
2021/12/12 03:50:54;;;;;;;15.95;3.50;;;;;;;7.78;100.00;100316.13;5014019;28;20042;-89
2021/12/12 03:53:21;;;;;;;10.90;2.50;;;;;;;7.63;100.00;100308.78;4997517;28;20132;-88
2021/12/12 03:55:49;;;;;;;14.00;2.70;;;;;;;7.45;100.00;100298.97;4997580;28;20057;-87
2021/12/12 03:58:16;;;;;;;13.23;2.42;;;;;;;7.72;100.00;100324.16;4996625;28;20049;-88
2021/12/12 04:00:42;;;;;;;13.40;2.75;;;;;;;7.72;100.00;100331.97;4995438;28;20064;-88
2021/12/12 04:03:11;;;;;;;10.45;2.00;;;;;;;7.80;100.00;100327.34;4977094;28;20050;-88
2021/12/12 04:05:39;;;;;;;14.23;2.53;;;;;;;7.79;100.00;100329.97;4977475;28;20092;-88
2021/12/12 04:08:06;;;;;;;11.77;2.65;;;;;;;7.83;100.00;100325.56;4977616;28;20053;-88
2021/12/12 04:10:33;;;;;;;7.45;2.92;;;;;;;7.80;100.00;100318.66;4977515;28;20054;-88
2021/12/12 04:13:00;;;;;;;7.65;1.88;;;;;;;7.80;100.00;100321.28;4995259;28;20061;-89
2021/12/12 04:15:28;;;;;;;12.60;2.30;;;;;;;7.69;100.00;100329.44;4996457;28;20140;-89
2021/12/12 04:17:55;;;;;;;10.45;2.83;;;;;;;7.70;100.00;100353.75;4996631;28;20046;-89
2021/12/12 04:20:29;;;;;;;16.05;3.00;;;;;;;7.70;100.00;100344.19;5013751;28;20054;-89
2021/12/12 04:22:56;;;;;;;7.50;1.73;;;;;;;7.87;100.00;100358.44;4983018;28;20049;-89
2021/12/12 04:25:23;;;;;;;12.57;2.22;;;;;;;7.73;100.00;100353.66;4997145;28;20060;-90
2021/12/12 04:27:51;;;;;;;9.27;2.28;;;;;;;7.62;100.00;100356.59;5015719;28;20049;-90
2021/12/12 04:30:23;;;;;;;12.80;2.53;;;;;;;7.61;100.00;100354.88;4982252;28;20050;-90
2021/12/12 04:32:52;;;;;;;8.02;2.83;;;;;;;7.71;100.00;100356.31;4991584;28;20050;-90
2021/12/12 04:35:27;;;;;;;15.55;2.83;;;;;;;7.77;100.00;100358.72;4996620;28;20058;-90
2021/12/12 04:37:56;;;;;;;7.13;1.95;;;;;;;7.76;100.00;100358.78;4996826;28;20503;-90
2021/12/12 04:40:27;;;;;;;11.15;2.42;;;;;;;7.71;100.00;100355.47;4996579;28;20136;-90
2021/12/12 04:42:56;;;;;;;11.00;3.10;;;;;;;7.62;100.00;100360.97;4979610;28;20074;-89
2021/12/12 04:45:26;;;;;;;14.32;2.60;;;;;;;7.68;100.00;100360.75;4976888;28;20062;-90
2021/12/12 04:50:46;;;;;;;;;;;;;;;7.87;100.00;100369.69;5012949;28;20045;-90
2021/12/12 04:53:25;;;;;;;21.70;3.67;;;;;;;7.51;100.00;100354.34;4976359;28;19929;-89
2021/12/12 04:56:11;;;;;;;12.65;2.70;;;;;;;7.50;100.00;100370.00;4977174;28;20047;-90
2021/12/12 04:58:52;;;;;;;8.82;2.75;;;;;;;7.58;100.00;100374.09;4995760;28;20046;-90
2021/12/12 05:01:34;;;;;;;9.07;2.60;;;;;;;7.51;100.00;100376.94;4992932;28;20046;-89
2021/12/12 05:04:14;;;;;;;9.73;2.10;;;;;;;7.55;100.00;100391.56;4996561;28;20061;-89
2021/12/12 05:06:45;;;;;;;8.82;1.95;;;;;;;7.39;100.00;100392.03;4996426;28;20400;-90
2021/12/12 05:09:53;;;;;;;14.35;2.70;;;;;;;7.37;100.00;100382.56;4996333;28;20089;-89
2021/12/12 05:12:30;;;;;;;8.23;2.00;;;;;;;7.48;100.00;100405.69;4981884;28;20054;-90
2021/12/12 05:15:01;;;;;;;13.35;2.25;;;;;;;7.25;100.00;100377.72;4976486;28;20054;-90
2021/12/12 05:17:56;;;;;;;9.57;2.13;;;;;;;7.30;100.00;100401.88;4976940;28;20496;-89
2021/12/12 05:20:31;;;;;;;13.07;2.30;;;;;;;7.16;100.00;100389.25;4985922;28;20061;-89
2021/12/12 05:23:02;;;;;;;13.50;2.80;;;;;;;7.12;100.00;100398.03;4975882;28;20399;-89
2021/12/12 05:25:36;;;;;;;11.02;2.75;;;;;;;7.07;100.00;100397.34;4991289;28;20416;-88
2021/12/12 05:28:04;;;;;;;12.98;2.50;;;;;;;6.93;100.00;100401.16;4987298;28;20053;-89
2021/12/12 05:30:34;;;;;;;15.35;2.50;;;;;;;6.89;100.00;100409.97;4991894;28;20050;-89
2021/12/12 05:33:04;;;;;;;8.85;2.38;;;;;;;6.85;100.00;100423.94;4985418;28;20072;-89
2021/12/12 05:35:35;;;;;;;10.25;2.95;;;;;;;6.56;100.00;100412.56;4985794;28;20060;-89
2021/12/12 05:38:06;;;;;;;16.63;3.10;;;;;;;6.08;100.00;100353.13;4985116;28;20451;-89
2021/12/12 05:40:37;;;;;;;8.50;2.35;;;;;;;6.41;100.00;100403.41;4987589;28;20050;-90
2021/12/12 05:43:05;;;;;;;10.27;2.67;;;;;;;6.50;100.00;100420.53;4985228;28;20061;-89
2021/12/12 05:45:34;;;;;;;9.55;2.55;;;;;;;6.43;100.00;100417.22;5002439;28;20061;-90
2021/12/12 05:48:02;;;;;;;10.00;2.25;;;;;;;6.40;100.00;100401.69;4988294;28;20074;-90
2021/12/12 05:50:29;;;;;;;13.40;2.53;;;;;;;6.57;100.00;100403.88;5001415;28;20057;-90
2021/12/12 05:52:56;;;;;;;19.30;2.35;;;;;;;6.89;100.00;100401.28;4995015;28;20065;-90
2021/12/12 05:55:27;;;;;;;7.40;1.83;;;;;;;6.77;100.00;100379.06;5008055;28;20054;-90
2021/12/12 05:57:58;;;;;;;15.15;2.72;;;;;;;6.93;100.00;100418.53;4992975;28;20060;-90
2021/12/12 06:00:35;;;;;;;15.18;3.03;;;;;;;7.01;100.00;100426.97;4994709;28;20133;-90
2021/12/12 06:03:07;;;;;;;12.88;2.42;;;;;;;7.16;100.00;100425.69;4986136;28;20129;-90
2021/12/12 06:05:35;;;;;;;15.48;3.72;;;;;;;7.06;100.00;100411.22;4995253;28;20093;-89
2021/12/12 06:08:03;;;;;;;10.60;2.63;;;;;;;7.12;100.00;100403.22;4995168;28;20141;-90
2021/12/12 06:10:34;;;;;;;11.15;2.50;;;;;;;7.17;100.00;100420.47;4994731;28;20057;-90
2021/12/12 06:13:03;;;;;;;13.70;2.75;;;;;;;7.28;100.00;100414.94;5010515;28;20548;-90
2021/12/12 06:15:31;;;;;;;11.57;2.00;;;;;;;7.38;100.00;100428.53;5012350;28;20045;-90
2021/12/12 06:17:58;;;;;;;15.50;3.55;;;;;;;7.27;100.00;100387.16;4994691;28;20052;-89
2021/12/12 06:20:27;;;;;;;11.90;2.75;;;;;;;7.35;100.00;100413.84;4999686;28;20403;-90
2021/12/12 06:22:55;;;;;;;9.93;2.88;;;;;;;7.45;100.00;100424.84;4992368;28;20056;-90
2021/12/12 06:25:24;;;;;;;10.98;2.25;;;;;;;7.56;100.00;100438.41;4994285;28;20084;-90
2021/12/12 06:27:51;;;;;;;17.17;2.58;;;;;;;7.44;100.00;100441.38;4980047;28;20050;-90
2021/12/12 06:30:22;;;;;;;8.70;2.50;;;;;;;7.56;100.00;100448.84;4978514;28;20518;-90
2021/12/12 06:32:50;;;;;;;8.90;2.30;;;;;;;7.65;100.00;100439.03;4996003;28;20381;-90
2021/12/12 06:35:18;;;;;;;10.05;2.40;;;;;;;7.84;100.00;100444.53;4975480;28;20420;-89
2021/12/12 06:37:46;;;;;;;15.35;2.70;;;;;;;7.73;100.00;100442.25;4994648;28;20049;-90
2021/12/12 06:40:17;;;;;;;12.25;2.67;;;;;;;7.74;100.00;100446.59;5011512;28;20065;-90
2021/12/12 06:42:44;;;;;;;22.88;4.93;;;;;;;7.67;100.00;100445.91;4979132;28;20528;-90
2021/12/12 06:45:12;;;;;;;16.83;3.95;;;;;;;7.86;100.00;100454.03;4992186;28;20057;-90
2021/12/12 06:47:40;;;;;;;13.80;4.65;;;;;;;7.93;100.00;100471.19;4998969;28;20041;-90
2021/12/12 06:50:08;;;;;;;15.63;3.60;;;;;;;7.75;100.00;100474.34;4998597;28;20064;-90
2021/12/12 06:52:36;;;;;;;10.02;2.40;;;;;;;7.86;100.00;100464.47;4982263;28;20457;-90
2021/12/12 06:55:07;;;;;;;17.75;3.15;;;;;;;7.87;100.00;100479.19;5000945;28;20056;-89
2021/12/12 06:57:34;;;;;;;13.55;2.63;;;;;;;7.79;100.00;100461.19;4994917;28;20057;-90
2021/12/12 07:00:03;;;;;;;11.52;2.42;;;;;;;7.77;100.00;100452.56;4997574;28;20053;-90
2021/12/12 07:02:30;;;;;;;12.75;2.45;;;;;;;7.73;100.00;100447.47;4997952;28;20547;-90
2021/12/12 07:04:57;;;;;;;9.35;2.25;;;;;;;7.79;100.00;100470.72;4998178;28;20057;-90
2021/12/12 07:07:25;;;;;;;14.73;3.13;;;;;;;7.55;100.00;100475.78;4992820;28;20061;-89
2021/12/12 07:09:53;;;;;;;13.82;2.45;;;;;;;7.72;100.00;100501.34;4998192;28;20054;-89
2021/12/12 07:12:22;;;;;;;16.58;3.47;;;;;;;7.61;100.00;100519.03;4983125;28;20058;-89
2021/12/12 07:14:53;;;;;;;20.45;3.47;;;;;;;7.72;100.00;100472.69;4977973;28;20116;-89
2021/12/12 07:17:22;;;;;;;15.85;4.05;;;;;;;7.92;100.00;100492.94;4997455;28;20046;-89
2021/12/12 07:19:50;;;;;;;12.95;3.13;;;;;;;7.85;100.00;100486.19;4997980;28;20058;-89
2021/12/12 07:22:17;;;;;;;12.10;3.20;;;;;;;7.79;100.00;100494.19;4994909;28;20053;-89
2021/12/12 07:24:44;;;;;;;22.65;4.22;;;;;;;7.84;100.00;100489.69;4998707;28;20072;-89
2021/12/12 07:27:15;;;;;;;12.43;2.88;;;;;;;7.94;100.00;100503.31;5026096;28;20038;-89
2021/12/12 07:29:43;;;;;;;15.55;3.20;;;;;;;7.78;100.00;100482.06;5015248;28;20053;-89
2021/12/12 07:32:10;;;;;;;14.27;3.90;;;;;;;7.77;100.00;100490.78;4987450;28;20084;-89
2021/12/12 07:34:38;;;;;;;18.60;4.43;;;;;;;7.48;100.00;100445.59;4980364;28;20062;-90
2021/12/12 07:37:08;;;;;;;20.27;5.07;;;;;;;7.82;100.00;100521.94;4997972;28;20460;-90
2021/12/12 07:39:39;;;;;;;19.65;5.50;;;;;;;7.90;100.00;100507.78;5014121;28;20053;-90
2021/12/12 07:42:07;;;;;;;12.63;2.90;;;;;;;8.02;100.00;100527.41;5020527;28;20050;-89
2021/12/12 07:44:37;;;;;;;15.48;3.17;;;;;;;7.77;100.00;100533.34;5015848;28;20484;-92
2021/12/12 07:47:06;;;;;;;13.90;3.33;;;;;;;7.91;100.00;100537.28;4999247;28;20053;-91
2021/12/12 07:49:40;;;;;;;22.80;3.13;;;;;;;7.73;100.00;100538.69;4999038;28;20061;-92
2021/12/12 07:52:19;;;;;;;15.00;3.28;;;;;;;7.86;100.00;100489.66;5016396;28;20045;-93
2021/12/12 07:54:49;;;;;;;17.02;3.60;;;;;;;7.80;100.00;100524.56;5000964;28;20045;-95
2021/12/12 07:57:17;;;;;;;15.68;4.53;;;;;;;8.07;100.00;100546.34;5000395;28;20053;-95
2021/12/12 07:59:45;;;;;;;14.52;4.20;;;;;;;8.14;100.00;100566.16;5001064;28;20054;-94
2021/12/12 08:02:15;;;;;;;14.23;2.65;;;;;;;7.71;100.00;100494.44;4996096;28;20054;-91
2021/12/12 08:04:43;;;;;;;13.52;2.90;;;;;;;7.78;100.00;100514.19;4997951;28;20049;-90
2021/12/12 08:07:13;;;;;;;23.05;4.03;;;;;;;7.88;100.00;100534.78;4997939;28;20060;-90
2021/12/12 08:09:43;;;;;;;14.18;3.63;;;;;;;7.73;100.00;100508.25;5014078;28;20452;-91
2021/12/12 08:12:12;;;;;;;10.32;2.50;;;;;;;7.74;100.00;100514.34;4993238;28;20054;-90
2021/12/12 08:14:40;;;;;;;16.52;3.83;;;;;;;7.94;100.00;100563.28;4996758;28;20057;-90
2021/12/12 08:17:11;;;;;;;8.85;2.78;;;;;;;7.90;100.00;100559.06;5015368;28;20479;-89
2021/12/12 08:19:39;;;;;;;12.30;2.42;;;;;;;7.91;100.00;100569.41;5034140;28;20061;-89
2021/12/12 08:22:08;;;;;;;11.35;2.58;;;;;;;7.85;100.00;100550.53;4992765;28;20057;-90
2021/12/12 08:24:37;;;;;;;16.45;2.75;;;;;;;7.81;100.00;100560.19;4996391;28;20053;-88
2021/12/12 08:27:06;;;;;;;21.30;3.55;;;;;;;7.62;100.00;100567.66;4996004;28;20419;-90
2021/12/12 08:29:34;;;;;;;22.10;3.20;;;;;;;7.77;100.00;100566.34;5011707;28;20403;-91
2021/12/12 08:32:08;;;;;;;17.08;2.88;;;;;;;7.68;100.00;100579.66;4994854;28;20053;-90
2021/12/12 08:34:52;;;;;;;15.82;3.78;;;;;;;7.80;100.00;100610.59;4995677;28;20042;-91
2021/12/12 08:37:19;;;;;;;17.17;2.97;;;;;;;7.83;100.00;100601.84;4988301;28;20050;-90
2021/12/12 08:39:54;;;;;;;19.52;3.40;;;;;;;7.87;100.00;100580.84;4990426;28;20046;-90
2021/12/12 08:42:26;;;;;;;19.25;3.33;;;;;;;7.88;100.00;100589.50;4989027;28;20056;-90
2021/12/12 08:44:55;;;;;;;17.67;3.53;;;;;;;7.80;100.00;100561.91;4976752;28;20054;-89
2021/12/12 08:47:24;;;;;;;31.88;4.30;;;;;;;7.85;100.00;100569.63;4991336;28;20423;-90
2021/12/12 08:49:52;;;;;;;16.02;3.75;;;;;;;7.94;100.00;100576.31;4996784;28;20064;-90
2021/12/12 08:52:30;;;;;;;11.68;2.35;;;;;;;8.07;100.00;100584.63;4982318;28;20056;-90
2021/12/12 08:55:00;;;;;;;12.57;3.30;;;;;;;8.06;100.00;100591.59;4995050;28;20054;-90
2021/12/12 08:57:46;;;;;;;21.85;3.80;;;;;;;7.90;100.00;100591.19;4992787;28;20559;-90
2021/12/12 09:00:31;;;;;;;14.77;3.45;;;;;;;7.93;100.00;100588.50;4984600;28;20072;-90
2021/12/12 09:02:59;;;;;;;17.55;3.72;;;;;;;8.04;100.00;100610.78;4977115;28;20530;-90
2021/12/12 09:05:31;;;;;;;14.95;3.85;;;;;;;8.10;100.00;100603.63;4977597;28;20754;-90
2021/12/12 09:08:25;;;;;;;19.15;3.08;;;;;;;7.85;100.00;100595.69;4982800;28;20056;-90
2021/12/12 09:11:05;;;;;;;12.55;3.35;;;;;;;8.14;100.00;100615.72;4976513;28;20050;-90
2021/12/12 09:13:42;;;;;;;23.25;4.22;;;;;;;8.15;100.00;100608.72;4977075;28;20061;-90
2021/12/12 09:16:35;;;;;;;13.80;2.85;;;;;;;8.30;100.00;100608.25;4976453;28;20540;-90
2021/12/12 09:19:13;;;;;;;12.13;2.55;;;;;;;8.28;100.00;100607.44;4986113;28;20535;-90
2021/12/12 09:21:57;;;;;;;15.93;4.35;;;;;;;8.14;100.00;100604.41;4983763;28;20049;-90
2021/12/12 09:24:30;;;;;;;12.73;2.90;;;;;;;8.20;100.00;100608.56;4995589;28;20100;-89
2021/12/12 09:27:02;;;;;;;;;;;;;;;8.20;100.00;100612.06;4994898;28;20045;-87
2021/12/12 09:29:37;;;;;;;16.27;3.42;;;;;;;8.05;100.00;100600.31;5010240;28;19925;-88
2021/12/12 09:32:10;;;;;;;9.77;2.25;;;;;;;8.29;100.00;100608.31;4983875;28;20392;-88
2021/12/12 09:34:49;;;;;;;17.27;3.30;;;;;;;8.29;100.00;100611.78;4994712;28;20403;-87
2021/12/12 09:37:47;;;;;;;12.30;2.90;;;;;;;8.44;100.00;100620.06;4994817;28;20053;-88
2021/12/12 09:40:42;;;;;;;15.35;3.67;;;;;;;8.37;100.00;100619.38;4994768;28;20046;-89
2021/12/12 09:43:36;;;;;;;13.68;3.17;;;;;;;8.44;100.00;100636.56;4987020;28;20058;-88
2021/12/12 09:46:19;;;;;;;14.02;3.60;;;;;;;8.36;100.00;100628.09;5003298;28;20062;-88
2021/12/12 09:52:12;;;;;;;12.15;3.13;;;;;;;8.51;100.00;100640.69;5011966;28;20518;-88
2021/12/12 09:54:59;;;;;;;11.68;3.20;;;;;;;8.48;100.00;100629.50;4991526;28;20055;-88
2021/12/12 09:57:32;;;;;;;11.82;3.10;;;;;;;8.57;100.00;100642.28;4990959;28;20047;-88
2021/12/12 10:00:17;;;;;;;12.95;3.42;;;;;;;8.60;100.00;100644.78;5002599;28;20396;-89
2021/12/12 10:02:54;;;;;;;11.60;3.05;;;;;;;8.63;100.00;100634.25;4988709;28;20407;-88
2021/12/12 10:05:24;;;;;;;15.98;3.25;;;;;;;8.67;100.00;100648.91;4991656;28;20399;-89
2021/12/12 10:08:21;;;;;;;12.30;2.83;;;;;;;8.67;100.00;100648.91;4994760;28;20045;-88
2021/12/12 10:11:03;;;;;;;10.30;2.10;;;;;;;8.72;100.00;100644.41;5011386;28;20124;-88
2021/12/12 10:13:47;;;;;;;8.23;1.98;;;;;;;8.81;100.00;100650.25;4994688;28;20058;-89
2021/12/12 10:16:32;;;;;;;11.15;2.80;;;;;;;8.76;100.00;100655.59;4991938;28;20082;-88
2021/12/12 10:19:15;;;;;;;13.40;2.58;;;;;;;8.61;100.00;100654.34;4993682;28;20107;-88
2021/12/12 10:22:23;;;;;;;10.88;2.55;;;;;;;8.74;100.00;100642.59;4980577;28;20526;-88
2021/12/12 10:25:00;;;;;;;14.38;3.00;;;;;;;8.64;100.00;100643.81;4989384;28;20057;-88
2021/12/12 10:27:38;;;;;;;10.82;4.00;;;;;;;8.74;100.00;100660.03;4994134;28;20110;-89
2021/12/12 10:30:05;;;;;;;10.60;2.72;;;;;;;8.87;100.00;100669.19;5010493;28;20064;-89
2021/12/12 10:32:46;;;;;;;16.50;3.38;;;;;;;8.67;100.00;100667.19;4980535;28;20051;-89
2021/12/12 10:35:25;;;;;;;13.10;3.47;;;;;;;8.84;100.00;100669.28;4980913;28;20050;-91
2021/12/12 10:38:01;;;;;;;15.55;7.68;;;;;;;8.74;100.00;100658.25;5001505;28;20062;-90
2021/12/12 10:40:35;;;;;;;15.57;3.20;;;;;;;8.82;100.00;100667.59;4996870;28;20045;-89
2021/12/12 10:43:08;;;;;;;11.98;2.92;;;;;;;8.80;100.00;100669.41;4976168;28;20042;-89
2021/12/12 10:45:43;;;;;;;11.00;3.03;;;;;;;8.71;100.00;100675.78;4979106;28;20045;-90
2021/12/12 10:48:15;;;;;;;11.13;2.85;;;;;;;8.68;100.00;100673.28;4995075;28;20385;-89
2021/12/12 10:51:04;;;;;;;11.83;4.37;;;;;;;8.81;100.00;100685.03;4994164;28;20049;-89
2021/12/12 10:54:00;;;;;;;8.40;2.33;;;;;;;8.86;100.00;100674.47;4993166;28;20280;-89
2021/12/12 10:56:42;;;;;;;10.95;3.05;;;;;;;8.72;100.00;100672.28;4993938;28;20049;-90
2021/12/12 10:59:23;;;;;;;10.77;2.70;;;;;;;8.68;100.00;100676.72;4995428;28;20459;-90
2021/12/12 11:01:56;;;;;;;10.57;2.40;;;;;;;8.73;100.00;100669.63;5001722;28;20058;-89
2021/12/12 11:04:33;;;;;;;15.13;2.37;;;;;;;8.89;100.00;100682.19;4979279;28;20054;-89
2021/12/12 11:07:04;;;;;;;12.85;2.63;;;;;;;8.76;100.00;100693.91;5002360;28;20282;-90
2021/12/12 11:09:56;;;;;;;10.50;2.55;;;;;;;8.60;100.00;100664.81;4995364;28;20050;-89
2021/12/12 11:12:52;;;;;;;14.40;4.53;;;;;;;8.59;100.00;100673.53;5022491;28;20113;-90
2021/12/12 11:15:27;;;;;;;14.43;3.85;;;;;;;8.49;100.00;100694.69;4992850;28;20064;-90
2021/12/12 11:17:59;;;;;;;12.63;3.00;;;;;;;8.47;100.00;100704.31;4992537;28;20046;-90
2021/12/12 11:20:35;;;;;;;13.15;3.05;;;;;;;8.30;100.00;100689.13;4992591;28;20051;-89
2021/12/12 11:23:15;;;;;;;15.25;4.18;;;;;;;8.09;100.00;100669.75;4974467;28;20125;-90
2021/12/12 11:25:49;;;;;;;17.92;4.85;;;;;;;8.12;100.00;100681.84;4976433;28;20500;-90
2021/12/12 11:28:26;;;;;;;14.18;3.83;;;;;;;8.24;100.00;100676.25;5011840;28;20052;-89
2021/12/12 11:31:12;;;;;;;9.77;2.85;;;;;;;8.45;100.00;100672.22;4994153;28;20050;-90
2021/12/12 11:33:43;;;;;;;12.90;3.75;;;;;;;8.23;100.00;100658.03;4978178;28;20088;-90
2021/12/12 11:36:13;;;;;;;13.50;3.22;;;;;;;8.15;100.00;100642.63;4979088;28;20120;-89
2021/12/12 11:39:06;;;;;;;18.42;4.82;;;;;;;8.42;100.00;100677.50;4996528;28;20046;-89
2021/12/12 11:41:38;;;;;;;13.63;3.13;;;;;;;8.38;100.00;100690.69;4978835;28;20061;-90
2021/12/12 11:44:23;;;;;;;20.27;4.60;;;;;;;8.34;100.00;100695.13;5007807;28;20076;-90
2021/12/12 11:47:05;;;;;;;14.38;2.92;;;;;;;8.32;100.00;100697.78;5017636;28;20046;-89
2021/12/12 11:49:41;;;;;;;11.63;3.17;;;;;;;8.39;100.00;100703.66;5017719;28;20045;-90
2021/12/12 11:52:13;;;;;;;17.73;3.53;;;;;;;8.59;100.00;100699.63;4993155;28;20054;-90
2021/12/12 11:54:55;;;;;;;17.10;3.47;;;;;;;8.73;100.00;100687.91;4978501;28;20046;-89
2021/12/12 11:57:27;;;;;;;12.50;2.50;;;;;;;8.89;100.00;100698.72;4982233;28;20089;-89
2021/12/12 12:00:15;;;;;;;12.43;2.88;;;;;;;8.99;100.00;100690.59;4998147;28;20046;-89
2021/12/12 12:02:56;;;;;;;12.27;2.85;;;;;;;8.96;100.00;100688.06;4997009;28;20081;-89
2021/12/12 12:06:08;;;;;;;24.60;3.85;;;;;;;8.96;100.00;100698.50;4998311;28;20076;-89